Time;durP1;ratioP1;P1;durP2;ratioP2;P2;SDS_P1;SDS_P2;PMS_P1;PMS_P2;Temp;Humidity;BMP_temperature;BMP_pressure;BME280_temperature;BME280_humidity;BME280_pressure;Samples;Min_cycle;Max_cycle;Signal;HPM_P1;HPM_P2
2023/10/19 00:01:08;;;;;;;28.58;22.38;;;;;;;12.23;84.90;98933.97;4162452;28;20072;-65
2023/10/19 00:03:13;;;;;;;33.43;24.03;;;;;;;12.26;84.82;98927.00;4162069;28;20561;-65
2023/10/19 00:05:16;;;;;;;25.73;20.52;;;;;;;12.29;85.07;98925.19;4157614;28;20314;-64
2023/10/19 00:07:19;;;;;;;36.72;22.92;;;;;;;12.28;84.72;98909.59;4155395;28;20485;-65
2023/10/19 00:09:20;;;;;;;34.97;27.00;;;;;;;12.22;85.22;98906.22;4155888;28;20046;-65
2023/10/19 00:11:26;;;;;;;33.22;21.90;;;;;;;12.29;85.04;98906.13;4157414;28;20057;-65
2023/10/19 00:13:28;;;;;;;28.67;21.80;;;;;;;12.15;85.73;98894.19;4163819;28;20409;-65
2023/10/19 00:15:35;;;;;;;28.58;21.00;;;;;;;12.10;85.86;98892.56;4156122;28;20037;-64
2023/10/19 00:17:38;;;;;;;31.08;21.85;;;;;;;12.20;85.80;98889.75;4150193;28;20495;-65
2023/10/19 00:19:57;;;;;;;30.38;21.70;;;;;;;12.21;85.82;98893.22;4151293;28;20038;-65
2023/10/19 00:22:01;;;;;;;28.85;21.08;;;;;;;12.30;85.19;98900.03;4155911;28;20476;-65
2023/10/19 00:24:05;;;;;;;30.70;22.75;;;;;;;12.17;85.90;98899.38;4155692;28;20060;-65
2023/10/19 00:26:08;;;;;;;31.35;23.65;;;;;;;12.15;86.08;98893.31;4154777;28;20037;-65
2023/10/19 00:28:12;;;;;;;27.17;21.55;;;;;;;12.16;85.93;98893.31;4151603;28;20099;-65
2023/10/19 00:30:18;;;;;;;27.92;20.65;;;;;;;12.23;85.84;98887.09;4152150;28;20090;-65
2023/10/19 00:32:24;;;;;;;29.90;22.98;;;;;;;12.26;85.75;98888.78;4156957;28;20511;-65
2023/10/19 00:34:29;;;;;;;35.67;23.50;;;;;;;12.22;86.15;98893.19;4164099;28;20063;-65
2023/10/19 00:36:31;;;;;;;;;;;;;;;12.21;85.88;98881.06;4164469;28;20033;-64
2023/10/19 00:38:47;;;;;;;24.63;18.83;;;;;;;12.15;86.31;98890.72;4154807;28;19933;-64
2023/10/19 00:40:52;;;;;;;35.65;24.05;;;;;;;12.17;86.35;98888.94;4155602;28;20037;-64
2023/10/19 00:42:56;;;;;;;25.00;19.45;;;;;;;12.28;86.30;98883.53;4156864;28;20074;-64
2023/10/19 00:45:04;;;;;;;31.70;23.45;;;;;;;12.14;87.04;98879.44;4163895;28;20030;-64
2023/10/19 00:47:12;;;;;;;32.28;22.85;;;;;;;12.19;86.77;98882.84;4163828;28;20044;-64
2023/10/19 00:49:17;;;;;;;39.65;23.13;;;;;;;12.26;86.55;98882.72;4159294;28;20046;-64
2023/10/19 00:51:29;;;;;;;;;;;;;;;12.23;86.63;98884.47;4157146;28;20526;-65
2023/10/19 00:53:31;;;;;;;30.95;23.02;;;;;;;12.14;87.23;98878.59;4163586;28;19921;-64
2023/10/19 00:55:35;;;;;;;23.95;19.55;;;;;;;12.35;86.38;98869.50;4158588;28;20038;-64
2023/10/19 00:57:42;;;;;;;26.50;20.50;;;;;;;12.21;86.37;98873.22;4155200;28;20109;-64
2023/10/19 00:59:47;;;;;;;32.88;21.67;;;;;;;12.08;87.29;98878.72;4163738;28;20045;-64
2023/10/19 01:01:53;;;;;;;31.83;23.10;;;;;;;12.13;87.85;98867.28;4148265;28;20125;-65
2023/10/19 01:03:58;;;;;;;29.95;21.20;;;;;;;12.20;87.06;98871.50;4155326;28;20492;-64
2023/10/19 01:06:05;;;;;;;25.13;20.40;;;;;;;12.17;87.58;98868.97;4159351;28;20034;-64
2023/10/19 01:08:22;;;;;;;33.03;23.25;;;;;;;12.30;86.73;98864.38;4163341;28;20045;-64
2023/10/19 01:10:28;;;;;;;28.58;23.23;;;;;;;12.42;85.85;98863.28;4160714;28;20107;-64
2023/10/19 01:12:38;;;;;;;28.70;22.30;;;;;;;12.29;86.36;98861.81;4155243;28;20042;-64
2023/10/19 01:14:41;;;;;;;29.00;21.20;;;;;;;12.17;87.02;98860.28;4147262;28;20048;-64
2023/10/19 01:16:45;;;;;;;27.45;19.98;;;;;;;12.21;86.75;98860.22;4131114;28;20121;-64
2023/10/19 01:18:53;;;;;;;23.70;18.48;;;;;;;12.23;86.66;98862.78;4155100;28;20101;-65
2023/10/19 01:20:56;;;;;;;29.42;21.30;;;;;;;12.28;86.75;98860.97;4148387;28;20100;-64
2023/10/19 01:23:10;;;;;;;31.58;20.73;;;;;;;12.24;86.71;98854.09;4156292;28;20037;-64
2023/10/19 01:25:16;;;;;;;29.15;21.35;;;;;;;12.27;87.07;98856.63;4161809;28;20539;-64
2023/10/19 01:27:20;;;;;;;29.55;20.45;;;;;;;12.25;87.08;98858.44;4156981;28;20454;-64
2023/10/19 01:29:27;;;;;;;26.63;21.13;;;;;;;12.35;86.62;98853.88;4163105;28;20148;-64
2023/10/19 01:31:38;;;;;;;32.10;23.60;;;;;;;12.37;86.59;98852.13;4171381;28;20042;-64
2023/10/19 01:33:41;;;;;;;32.78;23.27;;;;;;;12.35;86.59;98846.06;4131912;28;20049;-64
2023/10/19 01:38:04;;;;;;;25.42;19.38;;;;;;;12.30;86.90;98842.69;4138318;28;20078;-64
2023/10/19 01:40:07;;;;;;;27.63;21.70;;;;;;;12.40;86.75;98836.41;4163203;28;20053;-64
2023/10/19 01:42:11;;;;;;;26.50;21.48;;;;;;;12.36;86.67;98832.16;4153260;28;20077;-64
2023/10/19 01:44:13;;;;;;;25.25;18.17;;;;;;;12.33;87.06;98837.44;4155967;28;20038;-64
2023/10/19 01:46:22;;;;;;;26.13;19.52;;;;;;;12.31;87.16;98841.78;4160723;28;20111;-64
2023/10/19 01:48:33;;;;;;;29.35;20.55;;;;;;;12.34;86.69;98832.19;4156781;28;20056;-64
2023/10/19 01:50:39;;;;;;;23.75;17.92;;;;;;;12.42;86.64;98841.59;4147397;28;20037;-64
2023/10/19 01:52:41;;;;;;;29.05;21.90;;;;;;;12.42;86.27;98837.25;4146664;28;20049;-64
2023/10/19 01:54:46;;;;;;;28.63;21.58;;;;;;;12.43;86.10;98838.97;4163026;28;20046;-64
2023/10/19 01:56:50;;;;;;;31.88;22.20;;;;;;;12.42;86.30;98826.81;4146551;28;20138;-64
2023/10/19 01:58:54;;;;;;;28.08;21.77;;;;;;;12.37;86.34;98831.28;4156039;28;20066;-64
2023/10/19 02:01:00;;;;;;;29.38;23.10;;;;;;;12.38;86.34;98831.25;4158014;28;20104;-64
2023/10/19 02:03:08;;;;;;;20.67;16.52;;;;;;;12.28;86.58;98834.03;4156105;28;20463;-64
2023/10/19 02:05:15;;;;;;;26.30;19.77;;;;;;;12.22;87.10;98832.41;4154606;28;20071;-64
2023/10/19 02:07:19;;;;;;;30.65;23.05;;;;;;;12.17;87.59;98832.50;4164024;28;20488;-64
2023/10/19 02:09:22;;;;;;;26.20;19.52;;;;;;;12.38;86.86;98823.41;4157989;28;20087;-64
2023/10/19 02:11:29;;;;;;;24.90;19.42;;;;;;;12.42;86.07;98824.22;4155764;28;20046;-64
2023/10/19 02:13:33;;;;;;;24.85;20.23;;;;;;;12.30;86.37;98821.84;4143215;28;20053;-64
2023/10/19 02:15:36;;;;;;;25.90;19.70;;;;;;;12.23;86.68;98808.91;4154502;28;20092;-64
2023/10/19 02:17:39;;;;;;;32.72;21.63;;;;;;;12.25;86.79;98810.66;4146735;28;20044;-64
2023/10/19 02:19:43;;;;;;;29.30;22.45;;;;;;;12.28;86.98;98805.38;4155704;28;20049;-64
2023/10/19 02:21:48;;;;;;;26.05;20.65;;;;;;;12.27;86.58;98798.47;4154347;28;20091;-64
2023/10/19 02:23:51;;;;;;;27.52;21.25;;;;;;;12.43;85.93;98781.63;4151833;28;20042;-64
2023/10/19 02:25:53;;;;;;;25.13;20.73;;;;;;;12.37;85.68;98784.38;4152856;28;20399;-64
2023/10/19 02:27:57;;;;;;;23.90;17.27;;;;;;;12.29;85.94;98784.50;4146169;28;20121;-64
2023/10/19 02:30:01;;;;;;;25.85;20.42;;;;;;;12.20;86.40;98771.66;4151163;28;20034;-64
2023/10/19 02:32:06;;;;;;;27.23;22.00;;;;;;;12.22;86.59;98770.75;4150368;28;20470;-64
2023/10/19 02:34:09;;;;;;;;;;;;;;;12.17;86.62;98767.38;4146843;28;20065;-64
2023/10/19 02:36:16;;;;;;;25.23;19.85;;;;;;;12.20;86.82;98769.91;4146389;28;19921;-64
2023/10/19 02:38:18;;;;;;;25.90;18.52;;;;;;;12.21;86.48;98766.41;4147292;28;20144;-64
2023/10/19 02:40:23;;;;;;;26.38;19.17;;;;;;;12.21;86.76;98761.22;4146384;28;20120;-64
2023/10/19 02:42:25;;;;;;;23.88;19.77;;;;;;;12.28;86.51;98759.34;4147478;28;20141;-64
2023/10/19 02:44:30;;;;;;;25.17;18.92;;;;;;;12.14;86.85;98764.81;4144935;28;20046;-64
2023/10/19 02:46:33;;;;;;;30.38;22.25;;;;;;;12.15;87.47;98760.47;4137914;28;20050;-64
2023/10/19 02:48:36;;;;;;;25.52;18.13;;;;;;;12.25;87.18;98761.13;4152697;28;20065;-64
2023/10/19 02:50:37;;;;;;;25.45;19.63;;;;;;;12.25;87.38;98762.03;4154322;28;20136;-64
2023/10/19 02:52:42;;;;;;;28.40;20.33;;;;;;;12.31;86.90;98756.69;4163763;28;20088;-64
2023/10/19 02:54:45;;;;;;;25.23;19.42;;;;;;;12.31;86.36;98766.22;4163772;28;20251;-64
2023/10/19 02:56:49;;;;;;;30.30;22.05;;;;;;;12.43;85.69;98759.94;4162492;28;20042;-64
2023/10/19 02:58:52;;;;;;;28.13;20.15;;;;;;;12.17;87.38;98764.75;4148542;28;20038;-64
2023/10/19 03:00:56;;;;;;;31.38;22.05;;;;;;;12.15;87.98;98758.72;4154645;28;20447;-64
2023/10/19 03:02:59;;;;;;;33.75;23.67;;;;;;;12.22;88.07;98756.84;4153931;28;20030;-64
2023/10/19 03:05:09;;;;;;;40.47;23.95;;;;;;;12.20;87.86;98754.28;4157113;28;20053;-64
2023/10/19 03:07:13;;;;;;;32.70;20.88;;;;;;;12.32;87.47;98753.16;4165696;28;20048;-64
2023/10/19 03:09:15;;;;;;;30.90;22.63;;;;;;;12.40;87.00;98755.63;4156826;28;20030;-64
2023/10/19 03:11:18;;;;;;;28.33;20.27;;;;;;;12.23;87.75;98743.78;4157145;28;20099;-64
2023/10/19 03:13:21;;;;;;;32.83;23.35;;;;;;;12.31;87.88;98751.47;4165368;28;20040;-64
2023/10/19 03:15:24;;;;;;;31.98;22.65;;;;;;;12.33;87.54;98744.47;4158204;28;20153;-64
2023/10/19 03:17:29;;;;;;;33.80;21.95;;;;;;;12.32;87.44;98747.09;4156750;28;20046;-64
2023/10/19 03:19:33;;;;;;;30.40;22.38;;;;;;;12.28;87.43;98745.44;4158552;28;20041;-64
2023/10/19 03:21:42;;;;;;;40.97;27.20;;;;;;;12.30;87.84;98751.50;4149341;28;20495;-64
2023/10/19 03:23:46;;;;;;;39.25;26.40;;;;;;;12.26;87.64;98737.66;4149096;28;20038;-64
2023/10/19 03:28:17;;;;;;;27.70;20.17;;;;;;;12.25;88.17;98730.75;4148552;28;20496;-64
2023/10/19 03:30:19;;;;;;;33.17;22.15;;;;;;;12.26;88.07;98729.84;4147409;28;20069;-64
2023/10/19 03:32:26;;;;;;;30.88;21.55;;;;;;;12.37;87.72;98735.69;4158014;28;20129;-64
2023/10/19 03:34:32;;;;;;;31.63;21.55;;;;;;;12.33;87.83;98734.03;4165963;28;20059;-64
2023/10/19 03:36:40;;;;;;;34.30;21.85;;;;;;;12.31;87.81;98729.75;4165103;28;20064;-64
2023/10/19 03:38:43;;;;;;;27.20;20.15;;;;;;;12.37;87.57;98727.03;4161982;28;20121;-64
2023/10/19 03:40:51;;;;;;;33.05;20.98;;;;;;;12.50;87.04;98730.22;4157901;28;20137;-64
2023/10/19 03:42:55;;;;;;;33.75;22.30;;;;;;;12.47;86.98;98723.34;4165094;28;20449;-64
2023/10/19 03:45:02;;;;;;;30.55;22.08;;;;;;;12.43;87.14;98721.69;4164895;28;20049;-64
2023/10/19 03:47:05;;;;;;;29.20;22.20;;;;;;;12.56;86.20;98704.88;4157239;28;20037;-64
2023/10/19 03:49:10;;;;;;;31.17;22.85;;;;;;;12.40;86.77;98696.53;4156618;28;20042;-64
2023/10/19 03:51:17;;;;;;;28.52;20.27;;;;;;;12.35;87.11;98697.53;4164832;28;20037;-64
2023/10/19 03:53:21;;;;;;;25.30;18.35;;;;;;;12.31;87.78;98696.75;4162506;28;20043;-64
2023/10/19 03:55:24;;;;;;;26.27;18.58;;;;;;;12.33;87.65;98707.13;4155233;28;20061;-64
2023/10/19 03:57:29;;;;;;;25.33;19.00;;;;;;;12.45;87.28;98703.41;4156126;28;20417;-64
2023/10/19 03:59:33;;;;;;;27.40;19.13;;;;;;;12.48;86.83;98708.56;4165587;28;20041;-64
2023/10/19 04:01:37;;;;;;;28.52;19.45;;;;;;;12.35;87.03;98695.81;4161121;28;20116;-64
2023/10/19 04:03:40;;;;;;;26.57;18.70;;;;;;;12.39;86.86;98696.56;4156342;28;20045;-64
2023/10/19 04:05:46;;;;;;;29.42;21.40;;;;;;;12.36;86.81;98688.81;4165758;28;20090;-64
2023/10/19 04:07:54;;;;;;;29.95;18.75;;;;;;;12.34;87.13;98688.88;4165551;28;20059;-64
2023/10/19 04:09:59;;;;;;;27.70;20.38;;;;;;;12.51;86.94;98691.13;4165727;28;20037;-64
2023/10/19 04:12:03;;;;;;;23.67;17.00;;;;;;;12.38;87.40;98694.84;4165654;28;20045;-64
2023/10/19 04:14:05;;;;;;;25.48;18.33;;;;;;;12.46;86.80;98684.28;4165569;28;20448;-64
2023/10/19 04:16:10;;;;;;;26.13;19.80;;;;;;;12.47;86.95;98684.25;4165502;28;20125;-64
2023/10/19 04:18:13;;;;;;;27.88;19.92;;;;;;;12.38;87.75;98684.44;4156764;28;20132;-64
2023/10/19 04:20:29;;;;;;;26.60;18.77;;;;;;;12.37;88.11;98677.53;4151672;28;20042;-64
2023/10/19 04:22:33;;;;;;;28.48;19.42;;;;;;;12.45;87.81;98682.56;4158834;28;20052;-64
2023/10/19 04:24:37;;;;;;;34.70;22.58;;;;;;;12.39;88.27;98680.94;4149261;28;20328;-64
2023/10/19 04:26:40;;;;;;;25.88;18.45;;;;;;;12.54;87.88;98674.53;4148914;28;20136;-64
2023/10/19 04:28:49;;;;;;;27.98;19.77;;;;;;;12.45;88.07;98670.38;4148855;28;20065;-64
2023/10/19 04:30:52;;;;;;;26.38;20.02;;;;;;;12.42;88.78;98680.88;4152179;28;20063;-64
2023/10/19 04:32:57;;;;;;;23.67;16.60;;;;;;;12.41;88.82;98681.75;4153490;28;20042;-64
2023/10/19 04:35:00;;;;;;;26.83;19.58;;;;;;;12.48;88.75;98685.09;4153429;28;20492;-64
2023/10/19 04:37:04;;;;;;;23.80;16.48;;;;;;;12.51;88.17;98680.69;4156745;28;20033;-64
2023/10/19 04:39:11;;;;;;;26.88;18.75;;;;;;;12.65;87.79;98672.53;4161350;28;20044;-64
2023/10/19 04:41:16;;;;;;;25.85;18.25;;;;;;;12.63;87.92;98674.34;4165190;28;20041;-64
2023/10/19 04:43:18;;;;;;;27.33;19.75;;;;;;;12.53;87.72;98672.81;4165377;28;20075;-64
2023/10/19 04:45:21;;;;;;;25.02;17.67;;;;;;;12.48;88.13;98672.91;4165167;28;20491;-64
2023/10/19 04:47:24;;;;;;;25.58;19.52;;;;;;;12.48;88.32;98662.47;4157571;28;20092;-64
2023/10/19 04:49:29;;;;;;;;;;;;;;;12.47;88.06;98668.59;4157296;28;20488;-64
2023/10/19 04:51:33;;;;;;;22.92;17.02;;;;;;;12.51;88.12;98665.03;4165033;28;19921;-64
2023/10/19 04:53:37;;;;;;;30.10;21.40;;;;;;;12.50;87.60;98663.31;4164951;28;20041;-64
2023/10/19 04:55:40;;;;;;;27.55;18.67;;;;;;;12.48;87.65;98669.44;4165343;28;20044;-64
2023/10/19 04:57:45;;;;;;;26.90;17.83;;;;;;;12.43;87.99;98666.09;4164597;28;20042;-64
2023/10/19 04:59:48;;;;;;;22.35;17.23;;;;;;;12.50;87.75;98665.06;4165398;28;20044;-64
2023/10/19 05:01:51;;;;;;;25.00;20.00;;;;;;;12.44;87.75;98666.06;4159480;28;20044;-64
2023/10/19 05:03:54;;;;;;;20.88;16.00;;;;;;;12.51;87.45;98675.47;4156645;28;20069;-64
2023/10/19 05:05:57;;;;;;;26.77;16.13;;;;;;;12.46;87.27;98666.03;4164768;28;21893;-64
2023/10/19 05:08:00;;;;;;;21.13;15.38;;;;;;;12.41;87.77;98666.13;4164481;28;20042;-64
2023/10/19 05:10:05;;;;;;;23.30;18.25;;;;;;;12.45;87.43;98654.72;4164808;28;20491;-64
2023/10/19 05:12:09;;;;;;;20.30;14.85;;;;;;;12.43;87.13;98651.31;4157015;28;20070;-64
2023/10/19 05:14:14;;;;;;;19.95;14.23;;;;;;;12.41;87.41;98655.69;4161556;28;20399;-64
2023/10/19 05:16:17;;;;;;;26.50;16.90;;;;;;;12.40;87.43;98661.81;4161352;28;20055;-64
2023/10/19 05:18:20;;;;;;;22.20;15.50;;;;;;;12.41;87.16;98663.50;4156122;28;20038;-64
2023/10/19 05:20:23;;;;;;;21.13;15.55;;;;;;;12.38;87.19;98664.47;4163080;28;20116;-64
2023/10/19 05:22:29;;;;;;;23.88;16.27;;;;;;;12.37;87.23;98660.13;4164607;28;20034;-64
2023/10/19 05:24:32;;;;;;;17.63;14.32;;;;;;;12.42;86.81;98653.97;4164110;28;20130;-64
2023/10/19 05:26:35;;;;;;;25.55;19.02;;;;;;;12.38;86.72;98660.97;4163138;28;20038;-64
2023/10/19 05:28:38;;;;;;;21.98;18.20;;;;;;;12.35;86.48;98653.22;4164236;28;20410;-64
2023/10/19 05:30:41;;;;;;;25.75;17.00;;;;;;;12.35;86.29;98650.63;4164356;28;20046;-64
2023/10/19 05:32:46;;;;;;;21.65;14.65;;;;;;;12.30;86.60;98660.31;4159041;28;20503;-64
2023/10/19 05:34:49;;;;;;;22.67;15.85;;;;;;;12.29;86.71;98654.22;4158121;28;20041;-64
2023/10/19 05:36:52;;;;;;;21.50;16.88;;;;;;;12.28;86.63;98657.72;4164320;28;20038;-64
2023/10/19 05:38:55;;;;;;;20.92;15.85;;;;;;;12.29;86.30;98653.38;4164134;28;20504;-64
2023/10/19 05:40:58;;;;;;;19.83;14.38;;;;;;;12.27;86.53;98650.81;4164291;28;20046;-64
2023/10/19 05:43:02;;;;;;;19.17;16.73;;;;;;;12.27;86.54;98649.94;4163089;28;20042;-64
2023/10/19 05:45:05;;;;;;;24.27;17.70;;;;;;;12.27;86.48;98644.75;4164337;28;20045;-64
2023/10/19 05:47:10;;;;;;;24.02;14.80;;;;;;;12.25;85.91;98651.72;4157761;28;20042;-64
2023/10/19 05:49:11;;;;;;;16.85;12.00;;;;;;;12.27;85.85;98663.81;4155762;28;20088;-64
2023/10/19 05:51:15;;;;;;;24.10;16.17;;;;;;;12.22;85.83;98663.94;4161392;28;20048;-64
2023/10/19 05:53:18;;;;;;;21.45;15.90;;;;;;;12.20;85.93;98657.88;4164228;28;20094;-64
2023/10/19 05:55:21;;;;;;;19.00;13.02;;;;;;;12.21;86.02;98664.81;4164195;28;20041;-64
2023/10/19 05:57:24;;;;;;;20.48;15.55;;;;;;;12.23;86.19;98665.63;4163955;28;20038;-64
2023/10/19 05:59:29;;;;;;;21.02;14.05;;;;;;;12.31;85.75;98664.59;4162371;28;20041;-64
2023/10/19 06:01:32;;;;;;;22.30;17.17;;;;;;;12.32;85.72;98671.53;4162646;28;20144;-64
2023/10/19 06:03:38;;;;;;;22.98;18.20;;;;;;;12.28;86.18;98664.66;4155842;28;20132;-64
2023/10/19 06:05:43;;;;;;;22.80;16.27;;;;;;;12.29;86.34;98669.00;4155582;28;20088;-64
2023/10/19 06:07:47;;;;;;;23.75;16.25;;;;;;;12.30;86.07;98671.56;4162413;28;20531;-64
2023/10/19 06:09:50;;;;;;;18.17;14.57;;;;;;;12.32;86.02;98681.97;4159542;28;20038;-64
2023/10/19 06:11:53;;;;;;;17.23;12.60;;;;;;;12.35;86.20;98674.94;4145062;28;20042;-64
2023/10/19 06:13:56;;;;;;;25.08;15.32;;;;;;;12.37;86.54;98673.16;4144612;28;20042;-64
2023/10/19 06:15:59;;;;;;;20.85;15.27;;;;;;;12.47;86.10;98676.44;4147680;28;20419;-64
2023/10/19 06:18:04;;;;;;;22.08;15.63;;;;;;;12.48;86.19;98670.31;4145488;28;20041;-64
2023/10/19 06:20:19;;;;;;;26.92;18.55;;;;;;;12.46;86.42;98672.09;4147435;28;20038;-64
2023/10/19 06:22:21;;;;;;;24.23;16.13;;;;;;;12.42;86.56;98683.47;4141123;28;20043;-64
2023/10/19 06:24:24;;;;;;;20.50;15.82;;;;;;;12.46;86.84;98681.69;4139475;28;20046;-64
2023/10/19 06:26:27;;;;;;;19.92;14.45;;;;;;;12.51;86.91;98680.69;4145282;28;20046;-64
2023/10/19 06:28:33;;;;;;;22.50;16.45;;;;;;;12.62;86.61;98679.59;4146984;28;20463;-64
2023/10/19 06:30:36;;;;;;;22.50;16.25;;;;;;;12.57;86.90;98677.94;4155098;28;20088;-64
2023/10/19 06:32:37;;;;;;;21.70;15.50;;;;;;;12.60;87.15;98669.19;4145538;28;20112;-64
2023/10/19 06:34:40;;;;;;;22.85;15.98;;;;;;;12.58;87.46;98670.97;4147223;28;20038;-64
2023/10/19 06:36:45;;;;;;;18.60;13.73;;;;;;;12.57;87.45;98675.31;4148729;28;20410;-64
2023/10/19 06:38:50;;;;;;;23.33;17.02;;;;;;;12.58;87.44;98666.59;4150292;28;20037;-64
2023/10/19 06:40:53;;;;;;;20.25;14.15;;;;;;;12.63;87.28;98678.66;4150609;28;20069;-64
2023/10/19 06:42:57;;;;;;;17.38;13.60;;;;;;;12.67;87.72;98677.72;4150362;28;20068;-64
2023/10/19 06:45:00;;;;;;;18.48;13.55;;;;;;;12.68;87.28;98677.69;4152431;28;20125;-64
2023/10/19 06:47:03;;;;;;;16.83;12.45;;;;;;;12.70;87.27;98680.25;4149944;28;20045;-64
2023/10/19 06:49:06;;;;;;;17.02;14.30;;;;;;;12.71;87.26;98676.75;4147661;28;20520;-64
2023/10/19 06:51:08;;;;;;;20.58;15.05;;;;;;;12.81;87.23;98675.66;4150134;28;20042;-64
2023/10/19 06:53:13;;;;;;;18.15;14.20;;;;;;;12.81;87.14;98678.25;4150255;28;20431;-64
2023/10/19 06:55:19;;;;;;;21.95;16.13;;;;;;;12.93;86.79;98674.50;4150180;28;20116;-64
2023/10/19 06:57:22;;;;;;;22.58;16.42;;;;;;;12.89;87.08;98670.22;4149846;28;20069;-64
2023/10/19 06:59:25;;;;;;;22.50;14.02;;;;;;;12.89;87.37;98671.13;4146555;28;20037;-64
2023/10/19 07:01:31;;;;;;;17.80;13.27;;;;;;;12.86;87.63;98665.09;4148346;28;20058;-65
2023/10/19 07:03:33;;;;;;;16.02;12.65;;;;;;;12.90;87.79;98671.97;4150068;28;20042;-65
2023/10/19 07:05:36;;;;;;;16.90;12.93;;;;;;;12.95;87.64;98654.44;4142059;28;20041;-65
2023/10/19 07:07:41;;;;;;;21.77;14.95;;;;;;;12.97;87.86;98662.25;4149381;28;20121;-64
2023/10/19 07:09:44;;;;;;;20.77;14.95;;;;;;;13.00;87.79;98662.16;4150008;28;20152;-64
2023/10/19 07:11:47;;;;;;;18.30;13.40;;;;;;;12.99;87.79;98665.66;4150090;28;20046;-64
2023/10/19 07:13:50;;;;;;;20.33;13.50;;;;;;;13.04;87.97;98661.16;4150089;28;20041;-65
2023/10/19 07:15:54;;;;;;;20.95;16.10;;;;;;;13.07;87.63;98659.34;4150200;28;20046;-65
2023/10/19 07:17:58;;;;;;;15.55;12.73;;;;;;;13.08;88.00;98668.03;4157784;28;20040;-65
2023/10/19 07:20:00;;;;;;;17.30;13.27;;;;;;;13.20;86.88;98665.13;4166500;28;20503;-65
2023/10/19 07:22:04;;;;;;;14.63;11.05;;;;;;;13.09;88.08;98661.94;4166387;28;20088;-64
2023/10/19 07:24:09;;;;;;;23.13;15.43;;;;;;;13.13;88.31;98663.56;4166321;28;20128;-65
2023/10/19 07:26:14;;;;;;;23.73;13.57;;;;;;;13.10;88.28;98654.06;4166425;28;20440;-64
2023/10/19 07:28:17;;;;;;;17.77;12.93;;;;;;;13.09;88.49;98652.34;4165969;28;20483;-64
2023/10/19 07:30:25;;;;;;;21.40;15.23;;;;;;;13.17;88.28;98664.34;4166606;28;20042;-65
2023/10/19 07:32:29;;;;;;;18.13;13.32;;;;;;;13.19;88.43;98665.16;4163683;28;20048;-64
2023/10/19 07:34:33;;;;;;;22.58;12.73;;;;;;;13.20;88.59;98659.91;4157871;28;20068;-64
2023/10/19 07:36:36;;;;;;;16.57;14.00;;;;;;;13.27;88.48;98658.84;4150753;28;20518;-64
2023/10/19 07:38:39;;;;;;;19.52;14.88;;;;;;;13.32;88.48;98657.88;4149174;28;20292;-64
2023/10/19 07:40:43;;;;;;;17.35;13.60;;;;;;;13.38;87.93;98648.16;4148177;28;20082;-63
2023/10/19 07:42:48;;;;;;;17.80;13.85;;;;;;;13.37;87.76;98653.41;4149413;28;20404;-63
2023/10/19 07:44:54;;;;;;;18.83;12.40;;;;;;;13.37;88.30;98645.59;4149537;28;20408;-63
2023/10/19 07:46:56;;;;;;;19.85;14.23;;;;;;;13.44;88.34;98645.38;4148864;28;20034;-62
2023/10/19 07:49:01;;;;;;;20.40;16.15;;;;;;;13.41;88.40;98653.28;4147673;28;20093;-62
2023/10/19 07:51:03;;;;;;;19.92;13.80;;;;;;;13.42;88.54;98655.03;4149580;28;20042;-62
2023/10/19 07:53:07;;;;;;;22.95;15.73;;;;;;;13.43;88.33;98658.47;4150457;28;20062;-62
2023/10/19 07:55:10;;;;;;;21.13;15.38;;;;;;;13.49;88.48;98654.84;4153346;28;20042;-62
2023/10/19 07:57:13;;;;;;;17.63;14.68;;;;;;;13.49;88.06;98658.34;4150300;28;20038;-62
2023/10/19 07:59:18;;;;;;;16.70;13.27;;;;;;;13.56;88.43;98657.25;4149154;28;20080;-62
2023/10/19 08:01:20;;;;;;;;;;;;;;;13.53;87.87;98657.31;4149884;28;20472;-63
2023/10/19 08:03:23;;;;;;;22.20;15.10;;;;;;;13.57;88.08;98647.69;4149257;28;20012;-63
2023/10/19 08:05:27;;;;;;;20.83;13.98;;;;;;;13.68;87.89;98649.97;4147760;28;20041;-62
2023/10/19 08:07:30;;;;;;;22.20;13.60;;;;;;;13.64;88.07;98657.06;4148876;28;20080;-62
2023/10/19 08:09:35;;;;;;;21.95;15.40;;;;;;;13.69;87.72;98657.75;4149182;28;20296;-61
2023/10/19 08:11:38;;;;;;;17.52;13.80;;;;;;;13.76;87.77;98648.03;4149185;28;20527;-62
2023/10/19 08:13:41;;;;;;;20.58;14.73;;;;;;;13.77;88.46;98654.97;4149194;28;20156;-62
2023/10/19 08:15:44;;;;;;;20.67;14.68;;;;;;;13.83;88.33;98657.41;4149638;28;20081;-62
2023/10/19 08:17:49;;;;;;;21.30;13.88;;;;;;;13.85;88.20;98652.97;4150755;28;20042;-64
2023/10/19 08:19:52;;;;;;;18.45;12.70;;;;;;;13.87;88.13;98645.97;4149457;28;20080;-64
2023/10/19 08:21:56;;;;;;;19.88;14.20;;;;;;;13.93;88.35;98645.78;4148929;28;20042;-64
2023/10/19 08:23:59;;;;;;;18.27;13.27;;;;;;;13.99;88.83;98638.66;4148952;28;20085;-64
2023/10/19 08:26:03;;;;;;;14.63;11.82;;;;;;;14.03;88.19;98638.53;4147598;28;20049;-64
2023/10/19 08:28:08;;;;;;;18.70;14.15;;;;;;;14.15;88.51;98634.72;4145129;28;20042;-64
2023/10/19 08:30:10;;;;;;;20.65;13.70;;;;;;;14.25;88.08;98636.16;4146198;28;20046;-64
2023/10/19 08:32:16;;;;;;;20.85;14.98;;;;;;;14.37;87.88;98634.91;4148819;28;20042;-64
2023/10/19 08:34:20;;;;;;;17.15;12.23;;;;;;;14.35;88.27;98641.09;4147402;28;20041;-65
2023/10/19 08:36:23;;;;;;;18.33;12.77;;;;;;;14.37;88.31;98631.44;4146309;28;20137;-65
2023/10/19 08:38:25;;;;;;;16.10;12.52;;;;;;;14.48;87.52;98634.56;4144095;28;20491;-67
2023/10/19 08:40:28;;;;;;;15.30;11.50;;;;;;;14.52;87.01;98620.50;4144760;28;20512;-67
2023/10/19 08:42:31;;;;;;;17.38;13.05;;;;;;;14.59;87.04;98623.78;4150997;28;20454;-65
2023/10/19 08:44:35;;;;;;;18.27;12.85;;;;;;;14.57;87.17;98623.84;4148137;28;20073;-65
2023/10/19 08:46:43;;;;;;;15.70;11.63;;;;;;;14.58;87.49;98628.16;4140852;28;20129;-64
2023/10/19 08:48:47;;;;;;;13.90;10.85;;;;;;;14.61;87.40;98627.19;4148305;28;20154;-64
2023/10/19 08:50:50;;;;;;;16.80;12.02;;;;;;;14.64;87.83;98622.75;4152477;28;20128;-64
2023/10/19 08:52:54;;;;;;;20.63;12.25;;;;;;;14.69;87.24;98629.59;4155947;28;20045;-65
2023/10/19 08:54:57;;;;;;;13.38;10.52;;;;;;;14.79;86.73;98615.31;4155287;28;20120;-65
2023/10/19 08:57:02;;;;;;;18.38;11.60;;;;;;;14.83;86.50;98616.94;4155234;28;20042;-65
2023/10/19 08:59:06;;;;;;;15.80;10.90;;;;;;;14.83;87.21;98614.31;4152453;28;20407;-63
2023/10/19 09:01:09;;;;;;;14.25;11.35;;;;;;;14.95;87.17;98611.31;4155234;28;20048;-63
2023/10/19 09:03:14;;;;;;;15.93;11.43;;;;;;;14.93;86.55;98612.25;4155287;28;20048;-62
2023/10/19 09:05:22;;;;;;;16.50;10.45;;;;;;;15.02;86.12;98606.69;4155468;28;20130;-62
2023/10/19 09:07:35;;;;;;;12.25;9.75;;;;;;;15.04;86.80;98610.13;4155086;28;20042;-63
2023/10/19 09:09:40;;;;;;;15.32;10.98;;;;;;;15.14;86.53;98619.38;4154451;28;20045;-63
2023/10/19 09:11:47;;;;;;;17.63;11.35;;;;;;;15.23;85.96;98612.97;4145454;28;20056;-62
2023/10/19 09:13:52;;;;;;;19.38;10.85;;;;;;;15.29;85.93;98610.13;4155291;28;20069;-63
2023/10/19 09:16:05;;;;;;;16.88;9.13;;;;;;;15.21;86.03;98606.91;4150441;28;20041;-62
2023/10/19 09:18:15;;;;;;;16.98;11.52;;;;;;;15.35;85.90;98602.06;4153852;28;20041;-62
2023/10/19 09:20:27;;;;;;;15.60;10.48;;;;;;;15.49;85.25;98606.81;4145855;28;20397;-63
2023/10/19 09:22:44;;;;;;;11.77;9.02;;;;;;;15.48;84.90;98597.25;4149681;28;20061;-61
2023/10/19 09:24:47;;;;;;;15.52;9.60;;;;;;;15.53;85.02;98602.31;4147477;28;20169;-63
2023/10/19 09:26:51;;;;;;;15.65;10.82;;;;;;;15.75;83.92;98593.69;4145992;28;20060;-62
2023/10/19 09:28:54;;;;;;;17.20;10.15;;;;;;;15.69;84.00;98587.75;4145434;28;20053;-63
2023/10/19 09:30:58;;;;;;;13.67;10.27;;;;;;;15.69;84.00;98587.75;4145011;28;20041;-63
2023/10/19 09:33:04;;;;;;;11.60;9.23;;;;;;;15.73;84.24;98591.13;4151479;28;21130;-63
2023/10/19 09:35:10;;;;;;;12.10;9.50;;;;;;;15.80;84.32;98589.13;4152771;28;20038;-62
2023/10/19 09:37:17;;;;;;;13.50;10.50;;;;;;;15.91;83.73;98586.97;4154787;28;20080;-62
2023/10/19 09:39:20;;;;;;;14.05;8.70;;;;;;;16.04;83.53;98587.38;4131249;28;20061;-63